createdAt,value
2022-12-24T00:00:07.228Z,5.02
2022-12-24T00:02:33.924Z,4.96
2022-12-24T00:05:01.552Z,4.95
2022-12-24T00:07:28.815Z,5.16
2022-12-24T00:09:55.329Z,5.08
2022-12-24T00:12:22.312Z,5.07
2022-12-24T00:14:49.266Z,4.97
2022-12-24T00:17:15.869Z,4.88
2022-12-24T00:19:43.343Z,4.95
2022-12-24T00:22:10.148Z,5.08
2022-12-24T00:24:36.995Z,5.23
2022-12-24T00:27:03.754Z,5.11
2022-12-24T00:29:30.350Z,5.21
2022-12-24T00:31:56.837Z,5.16
2022-12-24T00:34:24.597Z,5.25
2022-12-24T00:36:51.659Z,5.31
2022-12-24T00:39:18.538Z,5.35
2022-12-24T00:41:45.079Z,5.34
2022-12-24T00:44:12.019Z,5.35
2022-12-24T00:46:41.047Z,5.36
2022-12-24T00:49:09.087Z,5.38
2022-12-24T00:51:36.371Z,5.35
2022-12-24T00:54:03.430Z,5.41
2022-12-24T00:56:30.314Z,5.43
2022-12-24T00:58:56.880Z,5.35
2022-12-24T01:01:24.021Z,5.25
2022-12-24T01:03:51.415Z,5.05
2022-12-24T01:06:20.948Z,5.18
2022-12-24T01:08:51.508Z,5.18
2022-12-24T01:11:18.249Z,5.33
2022-12-24T01:13:45.872Z,5.29
2022-12-24T01:16:19.083Z,5.14
2022-12-24T01:18:45.771Z,5.15
2022-12-24T01:21:12.693Z,4.93
2022-12-24T01:23:39.222Z,4.93
2022-12-24T01:26:06.045Z,4.98
2022-12-24T01:28:33.718Z,5.00
2022-12-24T01:31:00.375Z,5.10
2022-12-24T01:33:30.280Z,5.15
2022-12-24T01:35:56.931Z,5.23
2022-12-24T01:38:24.103Z,5.34
2022-12-24T01:41:09.324Z,5.15
2022-12-24T01:43:35.925Z,4.93
2022-12-24T01:46:06.823Z,4.99
2022-12-24T01:48:56.004Z,4.92
2022-12-24T01:51:42.715Z,5.02
2022-12-24T01:54:09.373Z,5.07
2022-12-24T01:56:40.151Z,4.88
2022-12-24T01:59:10.692Z,4.81
2022-12-24T02:01:37.838Z,4.88
2022-12-24T02:04:13.605Z,4.82
2022-12-24T02:06:40.117Z,4.82
2022-12-24T02:09:07.310Z,5.04
2022-12-24T02:11:38.495Z,5.17
2022-12-24T02:14:05.118Z,5.23
2022-12-24T02:16:41.243Z,5.24
2022-12-24T02:19:25.776Z,5.04
2022-12-24T02:21:58.885Z,5.10
2022-12-24T02:24:43.481Z,4.87
2022-12-24T02:27:36.800Z,4.82
2022-12-24T02:30:07.357Z,4.71
2022-12-24T02:32:44.896Z,4.67
2022-12-24T02:35:18.083Z,4.64
2022-12-24T02:37:53.668Z,4.66
2022-12-24T02:40:36.752Z,4.75
2022-12-24T02:43:10.035Z,4.76
2022-12-24T02:45:40.468Z,4.72
2022-12-24T02:48:07.896Z,4.69
2022-12-24T02:50:35.448Z,4.63
2022-12-24T02:53:01.941Z,4.62
2022-12-24T02:56:05.862Z,4.51
2022-12-24T02:58:42.366Z,4.53
2022-12-24T03:01:43.698Z,4.49
2022-12-24T03:04:39.654Z,4.49
2022-12-24T03:07:37.030Z,4.53
2022-12-24T03:10:18.565Z,4.51
2022-12-24T03:12:50.180Z,4.54
2022-12-24T03:15:19.985Z,4.51
2022-12-24T03:17:49.322Z,4.49
2022-12-24T03:20:23.535Z,4.46
2022-12-24T03:22:50.566Z,4.48
2022-12-24T03:25:17.499Z,4.48
2022-12-24T03:27:44.880Z,4.47
2022-12-24T03:30:14.449Z,4.47
2022-12-24T03:32:41.082Z,4.54
2022-12-24T03:35:08.895Z,4.53
2022-12-24T03:37:35.436Z,4.44
2022-12-24T03:40:01.939Z,4.36
2022-12-24T03:42:28.429Z,4.47
2022-12-24T03:44:55.354Z,4.58
2022-12-24T03:47:22.313Z,4.59
2022-12-24T03:49:48.854Z,4.43
2022-12-24T03:52:15.660Z,4.37
2022-12-24T03:54:42.168Z,4.39
2022-12-24T03:57:08.658Z,4.30
2022-12-24T03:59:35.162Z,4.30
2022-12-24T04:02:01.910Z,4.25
2022-12-24T04:04:28.770Z,4.30
2022-12-24T04:06:55.343Z,4.32
2022-12-24T04:09:21.867Z,4.28
2022-12-24T04:11:48.340Z,4.23
2022-12-24T04:14:14.830Z,4.19
2022-12-24T04:16:41.394Z,4.17
2022-12-24T04:19:08.020Z,4.26
2022-12-24T04:21:34.673Z,4.13
2022-12-24T04:24:01.169Z,4.15
2022-12-24T04:26:27.654Z,4.19
2022-12-24T04:28:54.222Z,4.16
2022-12-24T04:31:20.864Z,4.11
2022-12-24T04:33:47.592Z,4.08
2022-12-24T04:36:17.240Z,4.18
2022-12-24T04:38:44.738Z,4.26
2022-12-24T04:41:24.800Z,4.14
2022-12-24T04:43:53.674Z,4.10
2022-12-24T04:46:23.087Z,4.16
2022-12-24T04:48:51.614Z,4.17
2022-12-24T04:51:19.731Z,4.17
2022-12-24T04:53:46.481Z,4.13
2022-12-24T04:56:15.594Z,4.09
2022-12-24T04:58:42.215Z,4.14
2022-12-24T05:01:13.114Z,4.13
2022-12-24T05:03:39.887Z,4.16
2022-12-24T05:06:09.437Z,4.19
2022-12-24T05:08:36.316Z,4.11
2022-12-24T05:11:03.352Z,4.06
2022-12-24T05:13:37.702Z,4.11
2022-12-24T05:16:07.760Z,4.01
2022-12-24T05:18:34.309Z,4.07
2022-12-24T05:21:00.851Z,4.15
2022-12-24T05:23:46.409Z,4.14
2022-12-24T05:26:23.381Z,4.05
2022-12-24T05:31:34.945Z,3.96
2022-12-24T05:34:03.386Z,4.04
2022-12-24T05:36:30.412Z,3.97
2022-12-24T05:38:57.166Z,3.98
2022-12-24T05:41:23.839Z,4.04
2022-12-24T05:43:51.103Z,3.96
2022-12-24T05:46:19.721Z,4.00
2022-12-24T05:48:47.867Z,4.02
2022-12-24T05:51:15.805Z,3.98
2022-12-24T05:53:42.815Z,3.92
2022-12-24T05:56:12.456Z,4.00
2022-12-24T05:58:40.229Z,4.04
2022-12-24T06:01:07.803Z,3.90
2022-12-24T06:03:34.871Z,3.97
2022-12-24T06:06:04.386Z,3.98
2022-12-24T06:08:31.911Z,4.07
2022-12-24T06:11:00.870Z,3.95
2022-12-24T06:13:28.017Z,3.95
2022-12-24T06:15:56.188Z,3.94
2022-12-24T06:18:23.578Z,4.09
2022-12-24T06:20:55.020Z,3.95
2022-12-24T06:23:22.262Z,4.02
2022-12-24T06:25:49.196Z,4.03
2022-12-24T06:28:16.077Z,4.03
2022-12-24T06:30:47.283Z,4.11
2022-12-24T06:33:14.416Z,4.01
2022-12-24T06:35:41.909Z,3.90
2022-12-24T06:38:08.430Z,3.84
2022-12-24T06:40:35.089Z,3.87
2022-12-24T06:43:01.650Z,3.86
2022-12-24T06:45:28.370Z,3.82
2022-12-24T06:47:54.919Z,3.88
2022-12-24T06:50:21.621Z,3.86
2022-12-24T06:52:48.132Z,3.98
2022-12-24T06:55:15.043Z,3.89
2022-12-24T06:57:41.700Z,3.82
2022-12-24T07:00:11.028Z,3.81
2022-12-24T07:02:41.860Z,3.78
2022-12-24T07:05:10.497Z,3.82
2022-12-24T07:07:38.577Z,3.89
2022-12-24T07:10:06.251Z,3.79
2022-12-24T07:12:33.025Z,3.80
2022-12-24T07:14:59.535Z,3.78
2022-12-24T07:17:26.212Z,3.81
2022-12-24T07:19:52.926Z,3.75
2022-12-24T07:22:19.542Z,3.75
2022-12-24T07:24:46.017Z,3.75
2022-12-24T07:27:12.601Z,3.69
2022-12-24T07:29:40.543Z,3.71
2022-12-24T07:32:07.154Z,3.72
2022-12-24T07:34:33.860Z,3.69
2022-12-24T07:37:00.491Z,3.75
2022-12-24T07:39:27.277Z,3.67
2022-12-24T07:41:53.883Z,3.72
2022-12-24T07:44:20.393Z,3.71
2022-12-24T07:46:46.949Z,3.72
2022-12-24T07:49:13.591Z,3.75
2022-12-24T07:51:40.128Z,3.61
2022-12-24T07:54:06.728Z,3.66
2022-12-24T07:56:33.248Z,3.66
2022-12-24T07:59:00.148Z,3.66
2022-12-24T08:01:26.800Z,3.69
2022-12-24T08:03:54.828Z,3.68
2022-12-24T08:06:22.402Z,3.63
2022-12-24T08:08:49.385Z,3.73
2022-12-24T08:11:16.719Z,3.81
2022-12-24T08:13:43.235Z,3.88
2022-12-24T08:16:10.160Z,3.90
2022-12-24T08:18:36.774Z,3.77
2022-12-24T08:21:03.965Z,3.78
2022-12-24T08:23:30.483Z,3.80
2022-12-24T08:25:56.995Z,3.80
2022-12-24T08:28:23.629Z,3.85
2022-12-24T08:30:51.285Z,3.90
2022-12-24T08:33:18.268Z,3.85
2022-12-24T08:35:53.691Z,3.88
2022-12-24T08:38:20.877Z,3.80
2022-12-24T08:40:50.059Z,3.97
2022-12-24T08:43:17.984Z,3.88
2022-12-24T08:45:44.957Z,3.85
2022-12-24T08:48:11.737Z,3.94
2022-12-24T08:50:42.270Z,3.93
2022-12-24T08:53:10.331Z,3.92
2022-12-24T08:55:36.955Z,3.86
2022-12-24T08:58:03.912Z,3.89
2022-12-24T09:00:30.502Z,3.94
2022-12-24T09:02:57.777Z,3.90
2022-12-24T09:05:26.003Z,3.94
2022-12-24T09:07:52.636Z,4.00
2022-12-24T09:10:19.464Z,4.04
2022-12-24T09:12:46.087Z,4.15
2022-12-24T09:15:14.291Z,4.05
2022-12-24T09:17:41.504Z,4.01
2022-12-24T09:20:08.899Z,3.97
2022-12-24T09:22:37.240Z,3.94
2022-12-24T09:25:04.860Z,3.96
2022-12-24T09:27:31.827Z,4.04
2022-12-24T09:29:58.481Z,3.99
2022-12-24T09:32:25.069Z,3.97
2022-12-24T09:34:51.703Z,3.99
2022-12-24T09:37:18.266Z,3.98
2022-12-24T09:39:44.844Z,4.02
2022-12-24T09:42:29.428Z,3.96
2022-12-24T09:45:08.181Z,3.91
2022-12-24T09:47:48.969Z,3.92
2022-12-24T09:50:42.338Z,4.08
2022-12-24T09:53:59.891Z,3.98
2022-12-24T09:56:30.804Z,3.91
2022-12-24T09:59:00.882Z,3.95
2022-12-24T10:01:30.506Z,4.05
2022-12-24T10:04:03.137Z,4.02
2022-12-24T10:06:39.473Z,4.13
2022-12-24T10:09:35.466Z,4.04
2022-12-24T10:12:11.997Z,4.06
2022-12-24T10:14:49.879Z,4.07
2022-12-24T10:17:19.125Z,4.04
2022-12-24T10:20:04.838Z,4.11
2022-12-24T10:23:01.066Z,4.14
2022-12-24T10:25:34.133Z,4.12
2022-12-24T10:28:05.899Z,4.16
2022-12-24T10:30:34.097Z,4.15
2022-12-24T10:33:01.061Z,4.17
2022-12-24T10:35:36.790Z,4.26
2022-12-24T10:38:04.483Z,4.26
2022-12-24T10:40:38.104Z,4.20
2022-12-24T10:43:16.888Z,4.23
2022-12-24T10:45:47.837Z,4.23
2022-12-24T10:48:23.059Z,4.24
2022-12-24T10:50:58.424Z,4.26
2022-12-24T10:53:47.670Z,4.33
2022-12-24T10:56:17.117Z,4.25
2022-12-24T10:58:53.031Z,4.26
2022-12-24T11:01:21.664Z,4.31
2022-12-24T11:04:01.504Z,4.31
2022-12-24T11:06:28.182Z,4.29
2022-12-24T11:09:11.690Z,4.13
2022-12-24T11:11:38.224Z,4.18
2022-12-24T11:14:05.881Z,4.17
2022-12-24T11:16:35.797Z,4.18
2022-12-24T11:19:16.140Z,4.17
2022-12-24T11:21:42.825Z,4.22
2022-12-24T11:24:12.291Z,4.25
2022-12-24T11:26:40.785Z,4.16
2022-12-24T11:29:23.238Z,4.26
2022-12-24T11:31:52.747Z,4.14
2022-12-24T11:34:25.821Z,4.11
2022-12-24T11:36:54.730Z,4.13
2022-12-24T11:39:24.867Z,4.15
2022-12-24T11:41:53.241Z,4.14
2022-12-24T11:44:28.352Z,4.20
2022-12-24T11:46:58.987Z,4.14
2022-12-24T11:49:28.406Z,4.18
2022-12-24T11:52:16.715Z,4.21
2022-12-24T11:55:01.673Z,4.15
2022-12-24T11:57:38.095Z,4.15
2022-12-24T12:00:05.514Z,4.17
2022-12-24T12:02:38.013Z,4.15
2022-12-24T12:05:18.541Z,4.23
2022-12-24T12:07:50.265Z,4.18
2022-12-24T12:10:21.205Z,4.24
2022-12-24T12:13:03.815Z,4.28
2022-12-24T12:15:34.432Z,4.19
2022-12-24T12:18:15.265Z,4.26
2022-12-24T12:20:54.070Z,4.27
2022-12-24T12:23:31.054Z,4.31
2022-12-24T12:25:59.606Z,4.32
2022-12-24T12:28:58.317Z,4.41
2022-12-24T12:31:49.229Z,4.40
2022-12-24T12:34:22.559Z,4.37
2022-12-24T12:36:58.056Z,4.36
2022-12-24T12:39:24.788Z,4.36
2022-12-24T12:41:56.851Z,4.25
2022-12-24T12:44:32.436Z,4.33
2022-12-24T12:47:28.244Z,4.25
2022-12-24T12:50:15.290Z,4.23
2022-12-24T12:53:02.849Z,4.30
2022-12-24T12:55:57.044Z,4.24
2022-12-24T12:58:42.031Z,4.19
2022-12-24T13:01:16.659Z,4.19
2022-12-24T13:04:01.986Z,4.17
2022-12-24T13:06:59.781Z,4.20
2022-12-24T13:10:07.936Z,4.10
2022-12-24T13:12:34.527Z,4.07
2022-12-24T13:15:27.599Z,4.07
2022-12-24T13:18:12.936Z,4.09
2022-12-24T13:20:46.859Z,4.03
2022-12-24T13:23:21.035Z,4.05
2022-12-24T13:25:53.515Z,4.03
2022-12-24T13:28:20.552Z,4.04
2022-12-24T13:30:49.506Z,3.88
2022-12-24T13:33:35.074Z,3.94
2022-12-24T13:36:04.424Z,3.84
2022-12-24T13:38:48.183Z,3.80
2022-12-24T13:41:38.795Z,3.79
2022-12-24T13:44:15.104Z,3.80
2022-12-24T13:46:52.138Z,3.62
2022-12-24T13:49:46.443Z,3.69
2022-12-24T13:52:13.001Z,3.66
2022-12-24T13:54:47.045Z,3.56
2022-12-24T13:57:31.895Z,3.58
2022-12-24T14:00:21.648Z,3.57
2022-12-24T14:03:07.071Z,3.42
2022-12-24T14:05:44.435Z,3.31
2022-12-24T14:08:16.389Z,3.21
2022-12-24T14:10:59.253Z,3.26
2022-12-24T14:13:40.957Z,3.31
2022-12-24T14:16:16.802Z,3.16
2022-12-24T14:18:47.933Z,3.09
2022-12-24T14:21:23.737Z,3.08
2022-12-24T14:23:56.544Z,3.14
2022-12-24T14:26:27.956Z,3.12
2022-12-24T14:29:47.092Z,3.09
2022-12-24T14:32:16.179Z,3.09
2022-12-24T14:34:42.985Z,3.13
2022-12-24T14:37:12.821Z,2.97
2022-12-24T14:39:46.418Z,2.99
2022-12-24T14:42:37.461Z,2.97
2022-12-24T14:45:31.491Z,2.98
2022-12-24T14:48:15.000Z,2.99
2022-12-24T14:51:02.689Z,2.95
2022-12-24T14:53:41.278Z,2.98
2022-12-24T14:56:16.896Z,3.01
2022-12-24T14:58:44.600Z,3.03
2022-12-24T15:01:29.022Z,3.10
2022-12-24T15:04:02.984Z,3.04
2022-12-24T15:06:33.456Z,3.03
2022-12-24T15:09:00.625Z,3.03
2022-12-24T15:11:27.393Z,3.02
2022-12-24T15:14:00.648Z,3.08
2022-12-24T15:16:32.804Z,3.08
2022-12-24T15:19:23.854Z,3.09
2022-12-24T15:21:50.670Z,3.07
2022-12-24T15:24:35.581Z,3.03
2022-12-24T15:27:12.709Z,3.06
2022-12-24T15:29:43.904Z,2.99
2022-12-24T15:32:14.333Z,2.99
2022-12-24T15:34:43.672Z,3.18
2022-12-24T15:37:27.181Z,3.10
2022-12-24T15:40:10.770Z,3.02
2022-12-24T15:42:42.470Z,3.00
2022-12-24T15:45:28.400Z,2.94
2022-12-24T15:47:59.224Z,3.02
2022-12-24T15:50:32.806Z,2.95
2022-12-24T15:53:19.283Z,2.95
2022-12-24T15:56:02.606Z,3.06
2022-12-24T15:58:33.333Z,2.95
2022-12-24T16:01:13.662Z,3.06
2022-12-24T16:03:42.318Z,3.01
2022-12-24T16:06:13.457Z,3.18
2022-12-24T16:08:41.655Z,3.10
2022-12-24T16:11:17.572Z,2.95
2022-12-24T16:14:07.160Z,3.05
2022-12-24T16:16:42.619Z,2.94
2022-12-24T16:19:39.512Z,2.89
2022-12-24T16:22:42.554Z,2.85
2022-12-24T16:25:28.889Z,2.87
2022-12-24T16:27:59.840Z,2.84
2022-12-24T16:30:27.821Z,2.82
2022-12-24T16:32:54.455Z,2.77
2022-12-24T16:35:33.279Z,2.87
2022-12-24T16:38:00.001Z,2.81
2022-12-24T16:40:27.986Z,2.83
2022-12-24T16:43:15.416Z,2.87
2022-12-24T16:45:44.002Z,2.84
2022-12-24T16:48:17.589Z,2.82
2022-12-24T16:50:44.261Z,2.81
2022-12-24T16:53:18.093Z,2.81
2022-12-24T16:55:45.862Z,2.77
2022-12-24T16:58:13.843Z,2.80
2022-12-24T17:00:41.274Z,2.80
2022-12-24T17:03:08.425Z,2.89
2022-12-24T17:05:39.304Z,2.93
2022-12-24T17:08:06.757Z,2.85
2022-12-24T17:10:33.847Z,2.74
2022-12-24T17:13:00.724Z,2.77
2022-12-24T17:15:27.580Z,2.79
2022-12-24T17:17:54.108Z,2.79
2022-12-24T17:20:24.166Z,2.78
2022-12-24T17:22:51.666Z,2.80
2022-12-24T17:25:18.358Z,2.75
2022-12-24T17:27:44.971Z,2.78
2022-12-24T17:30:11.839Z,2.68
2022-12-24T17:32:39.734Z,2.76
2022-12-24T17:35:07.541Z,2.68
2022-12-24T17:37:34.124Z,2.62
2022-12-24T17:40:00.778Z,2.61
2022-12-24T17:42:27.376Z,2.63
2022-12-24T17:44:53.934Z,2.71
2022-12-24T17:47:20.685Z,2.63
2022-12-24T17:49:47.210Z,2.64
2022-12-24T17:52:13.707Z,2.66
2022-12-24T17:54:40.326Z,2.54
2022-12-24T17:57:06.809Z,2.58
2022-12-24T17:59:33.400Z,2.59
2022-12-24T18:02:00.219Z,2.64
2022-12-24T18:04:26.909Z,2.68
2022-12-24T18:06:59.672Z,2.59
2022-12-24T18:09:29.039Z,2.68
2022-12-24T18:11:55.661Z,2.60
2022-12-24T18:14:22.136Z,2.61
2022-12-24T18:16:49.422Z,2.59
2022-12-24T18:19:16.257Z,2.46
2022-12-24T18:21:42.773Z,2.42
2022-12-24T18:24:12.054Z,2.45
2022-12-24T18:26:39.336Z,2.46
2022-12-24T18:29:06.236Z,2.47
2022-12-24T18:31:34.162Z,2.62
2022-12-24T18:34:03.820Z,2.54
2022-12-24T18:36:30.433Z,2.53
2022-12-24T18:38:57.180Z,2.50
2022-12-24T18:41:26.869Z,2.42
2022-12-24T18:43:54.070Z,2.48
2022-12-24T18:46:23.803Z,2.40
2022-12-24T18:48:50.607Z,2.33
2022-12-24T18:51:18.629Z,2.33
2022-12-24T18:53:45.253Z,2.29
2022-12-24T18:56:14.609Z,2.29
2022-12-24T18:58:42.402Z,2.29
2022-12-24T19:01:13.712Z,2.38
2022-12-24T19:03:40.351Z,2.43
2022-12-24T19:06:07.191Z,2.29
2022-12-24T19:11:20.432Z,2.32
2022-12-24T19:13:48.722Z,2.28
2022-12-24T19:16:16.345Z,2.26
2022-12-24T19:18:43.017Z,2.24
2022-12-24T19:21:13.005Z,2.44
2022-12-24T19:23:40.132Z,2.28
2022-12-24T19:26:07.001Z,2.24
2022-12-24T19:28:33.627Z,2.21
2022-12-24T19:31:08.646Z,2.34
2022-12-24T19:33:43.229Z,2.26
2022-12-24T19:36:13.231Z,2.21
2022-12-24T19:38:40.627Z,2.36
2022-12-24T19:41:12.683Z,2.41
2022-12-24T19:43:41.567Z,2.27
2022-12-24T19:46:14.682Z,2.23
2022-12-24T19:48:42.845Z,2.27
2022-12-24T19:51:12.413Z,2.30
2022-12-24T19:53:40.134Z,2.35
2022-12-24T19:56:07.091Z,2.28
2022-12-24T19:58:34.636Z,2.26
2022-12-24T20:01:15.811Z,2.32
2022-12-24T20:03:43.711Z,2.24
2022-12-24T20:06:10.894Z,2.30
2022-12-24T20:08:38.711Z,2.23
2022-12-24T20:11:09.621Z,2.18
2022-12-24T20:13:36.905Z,2.22
2022-12-24T20:16:12.868Z,2.23
2022-12-24T20:18:39.947Z,2.18
2022-12-24T20:21:08.933Z,2.22
2022-12-24T20:23:37.729Z,2.18
2022-12-24T20:26:06.323Z,2.24
2022-12-24T20:28:34.833Z,2.22
2022-12-24T20:31:01.352Z,2.24
2022-12-24T20:33:28.416Z,2.26
2022-12-24T20:35:55.019Z,2.20
2022-12-24T20:38:21.710Z,2.27
2022-12-24T20:40:48.256Z,2.22
2022-12-24T20:43:14.807Z,2.21
2022-12-24T20:45:48.894Z,2.23
2022-12-24T20:48:17.270Z,2.20
2022-12-24T20:50:43.905Z,2.18
2022-12-24T20:53:10.532Z,2.19
2022-12-24T20:55:37.399Z,2.12
2022-12-24T20:58:03.953Z,2.15
2022-12-24T21:00:30.947Z,2.11
2022-12-24T21:02:57.763Z,2.15
2022-12-24T21:05:24.350Z,2.21
2022-12-24T21:07:51.088Z,2.19
2022-12-24T21:10:17.713Z,2.13
2022-12-24T21:12:50.323Z,2.28
2022-12-24T21:15:19.224Z,2.42
2022-12-24T21:17:46.928Z,2.47
2022-12-24T21:20:14.290Z,2.48
2022-12-24T21:22:41.429Z,2.22
2022-12-24T21:25:09.144Z,2.26
2022-12-24T21:27:35.767Z,2.32
2022-12-24T21:30:02.729Z,2.44
2022-12-24T21:32:29.294Z,2.35
2022-12-24T21:34:55.791Z,2.36
2022-12-24T21:37:22.484Z,2.39
2022-12-24T21:39:50.025Z,2.34
2022-12-24T21:42:16.532Z,2.35
2022-12-24T21:44:43.029Z,2.26
2022-12-24T21:47:11.043Z,2.21
2022-12-24T21:49:56.190Z,2.25
2022-12-24T21:52:22.787Z,2.20
2022-12-24T21:54:50.108Z,2.13
2022-12-24T21:57:35.253Z,2.20
2022-12-24T22:00:20.691Z,2.15
2022-12-24T22:02:51.356Z,2.09
2022-12-24T22:05:18.656Z,2.18
2022-12-24T22:08:03.882Z,2.17
2022-12-24T22:10:49.562Z,2.15
2022-12-24T22:13:16.864Z,2.12
2022-12-24T22:15:48.864Z,2.12
2022-12-24T22:18:17.767Z,2.09
2022-12-24T22:20:45.553Z,2.08
2022-12-24T22:23:14.026Z,2.14
2022-12-24T22:25:42.106Z,2.14
2022-12-24T22:28:08.595Z,2.19
2022-12-24T22:30:40.035Z,2.19
2022-12-24T22:33:07.375Z,2.03
2022-12-24T22:35:37.571Z,2.08
2022-12-24T22:38:04.421Z,2.02
2022-12-24T22:40:31.040Z,1.97
2022-12-24T22:42:57.621Z,2.12
2022-12-24T22:45:24.307Z,2.05
2022-12-24T22:47:50.849Z,2.01
2022-12-24T22:50:17.464Z,2.04
2022-12-24T22:52:44.608Z,2.03
2022-12-24T22:55:11.151Z,2.11
2022-12-24T22:57:37.689Z,2.00
2022-12-24T23:00:14.510Z,1.96
2022-12-24T23:02:41.077Z,1.97
2022-12-24T23:05:13.327Z,2.04
2022-12-24T23:07:40.020Z,1.99
2022-12-24T23:10:08.656Z,2.09
2022-12-24T23:12:53.574Z,2.09
2022-12-24T23:15:20.236Z,2.00
2022-12-24T23:17:49.164Z,2.01
2022-12-24T23:20:16.061Z,1.98
2022-12-24T23:22:42.672Z,1.96
2022-12-24T23:25:09.611Z,1.92
2022-12-24T23:27:36.250Z,1.94
2022-12-24T23:30:02.772Z,1.93
2022-12-24T23:32:29.346Z,1.94
2022-12-24T23:34:55.853Z,1.93
2022-12-24T23:37:22.367Z,1.97
2022-12-24T23:39:49.037Z,2.01
2022-12-24T23:42:15.715Z,2.03
2022-12-24T23:44:42.236Z,1.96
2022-12-24T23:47:08.765Z,2.00
2022-12-24T23:49:35.841Z,2.05
2022-12-24T23:52:02.398Z,2.05
2022-12-24T23:54:29.030Z,2.26
2022-12-24T23:56:55.808Z,2.15
2022-12-24T23:59:22.383Z,2.11
